Terminal Aerodrome Forecast
Issued by NWS

Home | Current Version | Previous Version | Text Only | Print | Product List | Glossary On
Versions: 1 2 3 4 5 6 7 8 9 10 11 12 13 14
123
FTUS44 KLIX 290633 AAA
TAFMSY
TAF AMD
KMSY 290633Z 2907/3006 17003KT 2SM SHRA BR BKN020 BKN100
     FM290815 15006KT 5SM -SHRA VCTS SCT020 OVC035CB
     FM291600 18009KT 4SM SHRA VCTS OVC025CB
     FM292000 18009KT P6SM SHRA VCTS BKN035CB=

USA.gov is the U.S. government's official web portal to all federal, state and local government web resources and services.